sensor_id;sensor_type;location;lat;lon;timestamp;temperature;humidity
21261;DHT22;10788;47.930;9.766;2023-08-08T00:01:50;11.20;99.90
21261;DHT22;10788;47.930;9.766;2023-08-08T00:04:16;11.20;99.90
21261;DHT22;10788;47.930;9.766;2023-08-08T00:06:41;11.20;99.90
21261;DHT22;10788;47.930;9.766;2023-08-08T00:09:07;11.20;99.90
21261;DHT22;10788;47.930;9.766;2023-08-08T00:11:33;11.20;99.90
21261;DHT22;10788;47.930;9.766;2023-08-08T00:13:58;11.20;99.90
21261;DHT22;10788;47.930;9.766;2023-08-08T00:16:24;11.20;99.90
21261;DHT22;10788;47.930;9.766;2023-08-08T00:18:50;11.10;99.90
21261;DHT22;10788;47.930;9.766;2023-08-08T00:21:22;11.10;99.90
21261;DHT22;10788;47.930;9.766;2023-08-08T00:23:47;11.10;99.90
21261;DHT22;10788;47.930;9.766;2023-08-08T00:26:13;11.10;99.90
21261;DHT22;10788;47.930;9.766;2023-08-08T00:28:38;10.90;99.90
21261;DHT22;10788;47.930;9.766;2023-08-08T00:31:04;11.00;99.90
21261;DHT22;10788;47.930;9.766;2023-08-08T00:33:30;11.00;99.90
21261;DHT22;10788;47.930;9.766;2023-08-08T00:35:55;11.00;99.90
21261;DHT22;10788;47.930;9.766;2023-08-08T00:38:21;11.00;99.90
21261;DHT22;10788;47.930;9.766;2023-08-08T00:40:46;11.00;99.90
21261;DHT22;10788;47.930;9.766;2023-08-08T00:43:12;10.90;99.90
21261;DHT22;10788;47.930;9.766;2023-08-08T00:45:38;11.10;99.90
21261;DHT22;10788;47.930;9.766;2023-08-08T00:48:05;10.90;99.90
21261;DHT22;10788;47.930;9.766;2023-08-08T00:50:31;10.90;99.90
21261;DHT22;10788;47.930;9.766;2023-08-08T00:52:57;10.90;99.90
21261;DHT22;10788;47.930;9.766;2023-08-08T00:55:23;10.90;99.90
21261;DHT22;10788;47.930;9.766;2023-08-08T00:57:48;10.90;99.90
21261;DHT22;10788;47.930;9.766;2023-08-08T01:00:14;10.90;99.90
21261;DHT22;10788;47.930;9.766;2023-08-08T01:02:40;10.90;99.90
21261;DHT22;10788;47.930;9.766;2023-08-08T01:05:06;10.80;99.90
21261;DHT22;10788;47.930;9.766;2023-08-08T01:07:38;10.90;99.90
21261;DHT22;10788;47.930;9.766;2023-08-08T01:10:15;10.90;99.90
21261;DHT22;10788;47.930;9.766;2023-08-08T01:12:45;10.90;99.90
21261;DHT22;10788;47.930;9.766;2023-08-08T01:15:13;10.80;99.90
21261;DHT22;10788;47.930;9.766;2023-08-08T01:17:39;10.80;99.90
21261;DHT22;10788;47.930;9.766;2023-08-08T01:20:07;10.90;99.90
21261;DHT22;10788;47.930;9.766;2023-08-08T01:22:53;10.80;99.90
21261;DHT22;10788;47.930;9.766;2023-08-08T01:25:21;10.90;99.90
21261;DHT22;10788;47.930;9.766;2023-08-08T01:27:47;10.90;99.90
21261;DHT22;10788;47.930;9.766;2023-08-08T01:30:12;10.90;99.90
21261;DHT22;10788;47.930;9.766;2023-08-08T01:32:38;10.90;99.90
21261;DHT22;10788;47.930;9.766;2023-08-08T01:35:04;10.90;99.90
21261;DHT22;10788;47.930;9.766;2023-08-08T01:37:40;10.90;99.90
21261;DHT22;10788;47.930;9.766;2023-08-08T01:40:08;10.90;99.90
21261;DHT22;10788;47.930;9.766;2023-08-08T01:42:35;10.90;99.90
21261;DHT22;10788;47.930;9.766;2023-08-08T01:45:02;10.80;99.90
21261;DHT22;10788;47.930;9.766;2023-08-08T01:47:28;10.80;99.90
21261;DHT22;10788;47.930;9.766;2023-08-08T01:49:53;10.80;99.90
21261;DHT22;10788;47.930;9.766;2023-08-08T01:52:19;10.80;99.90
21261;DHT22;10788;47.930;9.766;2023-08-08T01:54:44;10.80;99.90
21261;DHT22;10788;47.930;9.766;2023-08-08T01:57:10;10.80;99.90
21261;DHT22;10788;47.930;9.766;2023-08-08T01:59:36;10.70;99.90
21261;DHT22;10788;47.930;9.766;2023-08-08T02:02:01;10.70;99.90
21261;DHT22;10788;47.930;9.766;2023-08-08T02:04:27;10.70;99.90
21261;DHT22;10788;47.930;9.766;2023-08-08T02:06:52;10.70;99.90
21261;DHT22;10788;47.930;9.766;2023-08-08T02:09:18;10.70;99.90
21261;DHT22;10788;47.930;9.766;2023-08-08T02:11:44;10.70;99.90
21261;DHT22;10788;47.930;9.766;2023-08-08T02:14:09;10.70;99.90
21261;DHT22;10788;47.930;9.766;2023-08-08T02:16:35;10.70;99.90
21261;DHT22;10788;47.930;9.766;2023-08-08T02:19:00;10.60;99.90
21261;DHT22;10788;47.930;9.766;2023-08-08T02:21:26;10.60;99.90
21261;DHT22;10788;47.930;9.766;2023-08-08T02:23:52;10.60;99.90
21261;DHT22;10788;47.930;9.766;2023-08-08T02:26:18;10.60;99.90
21261;DHT22;10788;47.930;9.766;2023-08-08T02:28:43;10.60;99.90
21261;DHT22;10788;47.930;9.766;2023-08-08T02:31:09;10.60;99.90
21261;DHT22;10788;47.930;9.766;2023-08-08T02:33:34;10.60;99.90
21261;DHT22;10788;47.930;9.766;2023-08-08T02:36:00;10.70;99.90
21261;DHT22;10788;47.930;9.766;2023-08-08T02:38:26;10.70;99.90
21261;DHT22;10788;47.930;9.766;2023-08-08T02:40:51;10.50;99.90
21261;DHT22;10788;47.930;9.766;2023-08-08T02:43:18;10.60;99.90
21261;DHT22;10788;47.930;9.766;2023-08-08T02:45:43;10.50;99.90
21261;DHT22;10788;47.930;9.766;2023-08-08T02:48:09;10.60;99.90
21261;DHT22;10788;47.930;9.766;2023-08-08T02:50:35;10.50;99.90
21261;DHT22;10788;47.930;9.766;2023-08-08T02:53:00;10.50;99.90
21261;DHT22;10788;47.930;9.766;2023-08-08T02:55:26;10.50;99.90
21261;DHT22;10788;47.930;9.766;2023-08-08T02:57:51;10.60;99.90
21261;DHT22;10788;47.930;9.766;2023-08-08T03:00:17;10.50;99.90
21261;DHT22;10788;47.930;9.766;2023-08-08T03:02:43;10.50;99.90
21261;DHT22;10788;47.930;9.766;2023-08-08T03:05:08;10.40;99.90
21261;DHT22;10788;47.930;9.766;2023-08-08T03:07:34;10.50;99.90
21261;DHT22;10788;47.930;9.766;2023-08-08T03:10:00;10.40;99.90
21261;DHT22;10788;47.930;9.766;2023-08-08T03:12:26;10.40;99.90
21261;DHT22;10788;47.930;9.766;2023-08-08T03:14:51;10.40;99.90
21261;DHT22;10788;47.930;9.766;2023-08-08T03:17:17;10.40;99.90
21261;DHT22;10788;47.930;9.766;2023-08-08T03:19:43;10.40;99.90
21261;DHT22;10788;47.930;9.766;2023-08-08T03:22:08;10.40;99.90
21261;DHT22;10788;47.930;9.766;2023-08-08T03:24:34;10.40;99.90
21261;DHT22;10788;47.930;9.766;2023-08-08T03:26:59;10.40;99.90
21261;DHT22;10788;47.930;9.766;2023-08-08T03:29:25;10.30;99.90
21261;DHT22;10788;47.930;9.766;2023-08-08T03:31:51;10.30;99.90
21261;DHT22;10788;47.930;9.766;2023-08-08T03:34:16;10.40;99.90
21261;DHT22;10788;47.930;9.766;2023-08-08T03:36:42;10.40;99.90
21261;DHT22;10788;47.930;9.766;2023-08-08T03:39:08;10.40;99.90
21261;DHT22;10788;47.930;9.766;2023-08-08T03:41:34;10.30;99.90
21261;DHT22;10788;47.930;9.766;2023-08-08T03:43:59;10.30;99.90
21261;DHT22;10788;47.930;9.766;2023-08-08T03:46:25;10.30;99.90
21261;DHT22;10788;47.930;9.766;2023-08-08T03:48:50;10.20;99.90
21261;DHT22;10788;47.930;9.766;2023-08-08T03:51:16;10.20;99.90
21261;DHT22;10788;47.930;9.766;2023-08-08T03:53:42;10.20;99.90
21261;DHT22;10788;47.930;9.766;2023-08-08T03:56:07;10.20;99.90
21261;DHT22;10788;47.930;9.766;2023-08-08T03:58:33;10.30;99.90
21261;DHT22;10788;47.930;9.766;2023-08-08T04:00:58;10.20;99.90
21261;DHT22;10788;47.930;9.766;2023-08-08T04:03:24;10.30;99.90
21261;DHT22;10788;47.930;9.766;2023-08-08T04:05:50;10.20;99.90
21261;DHT22;10788;47.930;9.766;2023-08-08T04:08:16;10.30;99.90
21261;DHT22;10788;47.930;9.766;2023-08-08T04:10:42;10.30;99.90
21261;DHT22;10788;47.930;9.766;2023-08-08T04:13:08;10.30;99.90
21261;DHT22;10788;47.930;9.766;2023-08-08T04:15:33;10.30;99.90
21261;DHT22;10788;47.930;9.766;2023-08-08T04:17:59;10.30;99.90
21261;DHT22;10788;47.930;9.766;2023-08-08T04:20:25;10.30;99.90
21261;DHT22;10788;47.930;9.766;2023-08-08T04:22:51;10.30;99.90
21261;DHT22;10788;47.930;9.766;2023-08-08T04:25:16;10.40;99.90
21261;DHT22;10788;47.930;9.766;2023-08-08T04:27:42;10.40;99.90
21261;DHT22;10788;47.930;9.766;2023-08-08T04:30:08;10.40;99.90
21261;DHT22;10788;47.930;9.766;2023-08-08T04:32:34;10.40;99.90
21261;DHT22;10788;47.930;9.766;2023-08-08T04:35:00;10.30;99.90
21261;DHT22;10788;47.930;9.766;2023-08-08T04:37:25;10.30;99.90
21261;DHT22;10788;47.930;9.766;2023-08-08T04:39:51;10.30;99.90
21261;DHT22;10788;47.930;9.766;2023-08-08T04:42:16;10.40;99.90
21261;DHT22;10788;47.930;9.766;2023-08-08T04:44:42;10.30;99.90
21261;DHT22;10788;47.930;9.766;2023-08-08T04:47:07;10.40;99.90
21261;DHT22;10788;47.930;9.766;2023-08-08T04:49:33;10.30;99.90
21261;DHT22;10788;47.930;9.766;2023-08-08T04:51:59;10.30;99.90
21261;DHT22;10788;47.930;9.766;2023-08-08T04:54:24;10.30;99.90
21261;DHT22;10788;47.930;9.766;2023-08-08T04:56:50;10.30;99.90
21261;DHT22;10788;47.930;9.766;2023-08-08T04:59:15;10.40;99.90
21261;DHT22;10788;47.930;9.766;2023-08-08T05:01:41;10.50;99.90
21261;DHT22;10788;47.930;9.766;2023-08-08T05:04:06;10.40;99.90
21261;DHT22;10788;47.930;9.766;2023-08-08T05:06:32;10.40;99.90
21261;DHT22;10788;47.930;9.766;2023-08-08T05:08:58;10.40;99.90
21261;DHT22;10788;47.930;9.766;2023-08-08T05:11:23;10.50;99.90
21261;DHT22;10788;47.930;9.766;2023-08-08T05:13:49;10.60;99.90
21261;DHT22;10788;47.930;9.766;2023-08-08T05:16:15;10.50;99.90
21261;DHT22;10788;47.930;9.766;2023-08-08T05:18:41;10.60;99.90
21261;DHT22;10788;47.930;9.766;2023-08-08T05:21:09;10.50;99.90
21261;DHT22;10788;47.930;9.766;2023-08-08T05:23:35;10.60;99.90
21261;DHT22;10788;47.930;9.766;2023-08-08T05:26:00;10.70;99.90
21261;DHT22;10788;47.930;9.766;2023-08-08T05:28:26;10.80;99.90
21261;DHT22;10788;47.930;9.766;2023-08-08T05:30:51;11.00;99.90
21261;DHT22;10788;47.930;9.766;2023-08-08T05:33:17;11.00;99.90
21261;DHT22;10788;47.930;9.766;2023-08-08T05:35:43;11.00;99.90
21261;DHT22;10788;47.930;9.766;2023-08-08T05:38:08;11.10;99.90
21261;DHT22;10788;47.930;9.766;2023-08-08T05:40:34;11.10;99.90
21261;DHT22;10788;47.930;9.766;2023-08-08T05:43:02;11.20;99.90
21261;DHT22;10788;47.930;9.766;2023-08-08T05:45:27;11.10;99.90
21261;DHT22;10788;47.930;9.766;2023-08-08T05:47:53;11.20;99.90
21261;DHT22;10788;47.930;9.766;2023-08-08T05:50:20;11.20;99.90
21261;DHT22;10788;47.930;9.766;2023-08-08T05:52:46;11.30;99.90
21261;DHT22;10788;47.930;9.766;2023-08-08T05:55:11;11.20;99.90
21261;DHT22;10788;47.930;9.766;2023-08-08T05:57:37;11.40;99.90
21261;DHT22;10788;47.930;9.766;2023-08-08T06:00:04;11.40;99.90
21261;DHT22;10788;47.930;9.766;2023-08-08T06:02:30;11.60;99.90
21261;DHT22;10788;47.930;9.766;2023-08-08T06:04:56;11.70;99.90
21261;DHT22;10788;47.930;9.766;2023-08-08T06:07:22;11.80;99.90
21261;DHT22;10788;47.930;9.766;2023-08-08T06:09:47;11.90;99.90
21261;DHT22;10788;47.930;9.766;2023-08-08T06:12:13;12.00;99.90
21261;DHT22;10788;47.930;9.766;2023-08-08T06:14:39;12.10;99.90
21261;DHT22;10788;47.930;9.766;2023-08-08T06:17:04;12.10;99.90
21261;DHT22;10788;47.930;9.766;2023-08-08T06:19:31;12.30;99.90
21261;DHT22;10788;47.930;9.766;2023-08-08T06:21:56;12.30;99.90
21261;DHT22;10788;47.930;9.766;2023-08-08T06:24:22;12.40;99.90
21261;DHT22;10788;47.930;9.766;2023-08-08T06:26:48;12.50;99.90
21261;DHT22;10788;47.930;9.766;2023-08-08T06:29:13;12.60;99.90
21261;DHT22;10788;47.930;9.766;2023-08-08T06:31:39;12.70;99.90
21261;DHT22;10788;47.930;9.766;2023-08-08T06:34:06;12.90;99.90
21261;DHT22;10788;47.930;9.766;2023-08-08T06:36:31;12.90;99.90
21261;DHT22;10788;47.930;9.766;2023-08-08T06:38:57;13.00;99.90
21261;DHT22;10788;47.930;9.766;2023-08-08T06:41:22;13.10;99.90
21261;DHT22;10788;47.930;9.766;2023-08-08T06:43:48;13.30;99.90
21261;DHT22;10788;47.930;9.766;2023-08-08T06:46:14;13.40;99.90
21261;DHT22;10788;47.930;9.766;2023-08-08T06:48:42;13.40;99.90
21261;DHT22;10788;47.930;9.766;2023-08-08T06:51:10;13.60;99.90
21261;DHT22;10788;47.930;9.766;2023-08-08T06:53:35;13.70;99.90
21261;DHT22;10788;47.930;9.766;2023-08-08T06:56:01;13.90;99.90
21261;DHT22;10788;47.930;9.766;2023-08-08T06:58:26;13.90;99.90
21261;DHT22;10788;47.930;9.766;2023-08-08T07:00:52;14.00;99.90
21261;DHT22;10788;47.930;9.766;2023-08-08T07:03:18;14.10;99.90
21261;DHT22;10788;47.930;9.766;2023-08-08T07:05:43;14.20;99.90
21261;DHT22;10788;47.930;9.766;2023-08-08T07:08:09;14.30;99.90
21261;DHT22;10788;47.930;9.766;2023-08-08T07:10:35;14.40;99.90
21261;DHT22;10788;47.930;9.766;2023-08-08T07:13:01;14.40;99.90
21261;DHT22;10788;47.930;9.766;2023-08-08T07:15:27;14.60;99.90
21261;DHT22;10788;47.930;9.766;2023-08-08T07:17:53;14.60;99.90
21261;DHT22;10788;47.930;9.766;2023-08-08T07:20:19;14.70;99.90
21261;DHT22;10788;47.930;9.766;2023-08-08T07:22:44;14.80;99.90
21261;DHT22;10788;47.930;9.766;2023-08-08T07:25:10;14.80;99.90
21261;DHT22;10788;47.930;9.766;2023-08-08T07:27:37;14.80;99.90
21261;DHT22;10788;47.930;9.766;2023-08-08T07:30:04;14.80;99.90
21261;DHT22;10788;47.930;9.766;2023-08-08T07:32:29;14.90;99.90
21261;DHT22;10788;47.930;9.766;2023-08-08T07:34:55;15.00;99.90
21261;DHT22;10788;47.930;9.766;2023-08-08T07:37:21;14.90;99.90
21261;DHT22;10788;47.930;9.766;2023-08-08T07:39:50;14.90;99.90
21261;DHT22;10788;47.930;9.766;2023-08-08T07:42:16;15.20;99.90
21261;DHT22;10788;47.930;9.766;2023-08-08T07:44:42;15.30;99.90
21261;DHT22;10788;47.930;9.766;2023-08-08T07:47:07;15.50;99.90
21261;DHT22;10788;47.930;9.766;2023-08-08T07:49:33;15.70;99.90
21261;DHT22;10788;47.930;9.766;2023-08-08T07:51:58;15.90;99.90
21261;DHT22;10788;47.930;9.766;2023-08-08T07:54:24;15.90;99.90
21261;DHT22;10788;47.930;9.766;2023-08-08T07:56:49;16.00;99.90
21261;DHT22;10788;47.930;9.766;2023-08-08T07:59:15;16.10;99.90
21261;DHT22;10788;47.930;9.766;2023-08-08T08:01:41;16.30;99.90
21261;DHT22;10788;47.930;9.766;2023-08-08T08:04:07;16.30;99.90
21261;DHT22;10788;47.930;9.766;2023-08-08T08:06:32;16.50;99.90
21261;DHT22;10788;47.930;9.766;2023-08-08T08:08:58;16.50;99.90
21261;DHT22;10788;47.930;9.766;2023-08-08T08:11:24;16.40;99.90
21261;DHT22;10788;47.930;9.766;2023-08-08T08:13:50;16.50;99.90
21261;DHT22;10788;47.930;9.766;2023-08-08T08:16:15;16.60;99.90
21261;DHT22;10788;47.930;9.766;2023-08-08T08:18:41;16.80;99.90
21261;DHT22;10788;47.930;9.766;2023-08-08T08:21:07;17.00;99.90
21261;DHT22;10788;47.930;9.766;2023-08-08T08:23:32;17.00;99.90
21261;DHT22;10788;47.930;9.766;2023-08-08T08:25:59;17.10;99.90
21261;DHT22;10788;47.930;9.766;2023-08-08T08:28:25;17.20;99.90
21261;DHT22;10788;47.930;9.766;2023-08-08T08:30:52;17.20;99.90
21261;DHT22;10788;47.930;9.766;2023-08-08T08:33:18;17.20;99.90
21261;DHT22;10788;47.930;9.766;2023-08-08T08:35:43;17.50;99.90
21261;DHT22;10788;47.930;9.766;2023-08-08T08:38:11;17.70;99.90
21261;DHT22;10788;47.930;9.766;2023-08-08T08:40:39;18.00;99.90
21261;DHT22;10788;47.930;9.766;2023-08-08T08:43:07;18.10;99.90
21261;DHT22;10788;47.930;9.766;2023-08-08T08:45:38;18.20;99.90
21261;DHT22;10788;47.930;9.766;2023-08-08T08:48:09;18.30;99.90
21261;DHT22;10788;47.930;9.766;2023-08-08T08:50:36;18.30;99.90
21261;DHT22;10788;47.930;9.766;2023-08-08T08:53:05;18.30;99.90
21261;DHT22;10788;47.930;9.766;2023-08-08T08:55:31;18.40;99.90
21261;DHT22;10788;47.930;9.766;2023-08-08T08:57:57;18.60;99.90
21261;DHT22;10788;47.930;9.766;2023-08-08T09:00:22;18.70;99.90
21261;DHT22;10788;47.930;9.766;2023-08-08T09:02:50;18.80;99.90
21261;DHT22;10788;47.930;9.766;2023-08-08T09:05:18;19.00;99.90
21261;DHT22;10788;47.930;9.766;2023-08-08T09:07:47;19.00;99.90
21261;DHT22;10788;47.930;9.766;2023-08-08T09:10:15;19.00;99.90
21261;DHT22;10788;47.930;9.766;2023-08-08T09:12:41;19.00;99.90
21261;DHT22;10788;47.930;9.766;2023-08-08T09:15:07;18.90;99.90
21261;DHT22;10788;47.930;9.766;2023-08-08T09:17:34;18.70;99.90
21261;DHT22;10788;47.930;9.766;2023-08-08T09:19:59;18.80;99.90
21261;DHT22;10788;47.930;9.766;2023-08-08T09:22:25;18.90;99.90
21261;DHT22;10788;47.930;9.766;2023-08-08T09:24:52;19.00;99.90
21261;DHT22;10788;47.930;9.766;2023-08-08T09:27:18;19.10;99.90
21261;DHT22;10788;47.930;9.766;2023-08-08T09:29:43;19.40;99.90
21261;DHT22;10788;47.930;9.766;2023-08-08T09:32:09;19.40;99.90
21261;DHT22;10788;47.930;9.766;2023-08-08T09:34:35;19.50;99.90
21261;DHT22;10788;47.930;9.766;2023-08-08T09:37:01;19.50;99.90
21261;DHT22;10788;47.930;9.766;2023-08-08T09:39:28;19.50;99.90
21261;DHT22;10788;47.930;9.766;2023-08-08T09:41:55;19.50;99.90
21261;DHT22;10788;47.930;9.766;2023-08-08T09:44:25;19.70;99.90
21261;DHT22;10788;47.930;9.766;2023-08-08T09:46:53;19.80;99.90
21261;DHT22;10788;47.930;9.766;2023-08-08T09:49:19;19.90;99.90
21261;DHT22;10788;47.930;9.766;2023-08-08T09:51:48;20.00;99.90
21261;DHT22;10788;47.930;9.766;2023-08-08T09:54:14;20.00;99.90
21261;DHT22;10788;47.930;9.766;2023-08-08T09:56:39;19.90;99.90
21261;DHT22;10788;47.930;9.766;2023-08-08T09:59:06;19.90;99.90
21261;DHT22;10788;47.930;9.766;2023-08-08T10:01:32;20.00;99.90
21261;DHT22;10788;47.930;9.766;2023-08-08T10:03:59;20.00;99.90
21261;DHT22;10788;47.930;9.766;2023-08-08T10:06:26;20.00;99.90
21261;DHT22;10788;47.930;9.766;2023-08-08T10:08:52;20.00;99.90
21261;DHT22;10788;47.930;9.766;2023-08-08T10:11:19;20.30;99.90
21261;DHT22;10788;47.930;9.766;2023-08-08T10:13:49;20.40;99.90
21261;DHT22;10788;47.930;9.766;2023-08-08T10:16:16;20.30;99.90
21261;DHT22;10788;47.930;9.766;2023-08-08T10:18:42;20.40;99.90
21261;DHT22;10788;47.930;9.766;2023-08-08T10:21:08;20.50;99.90
21261;DHT22;10788;47.930;9.766;2023-08-08T10:23:39;20.60;99.90
21261;DHT22;10788;47.930;9.766;2023-08-08T10:26:16;20.50;99.90
21261;DHT22;10788;47.930;9.766;2023-08-08T10:28:54;20.70;99.90
21261;DHT22;10788;47.930;9.766;2023-08-08T10:31:21;20.40;99.90
21261;DHT22;10788;47.930;9.766;2023-08-08T10:33:47;20.30;99.90
21261;DHT22;10788;47.930;9.766;2023-08-08T10:36:13;20.40;99.90
21261;DHT22;10788;47.930;9.766;2023-08-08T10:38:46;20.30;99.90
21261;DHT22;10788;47.930;9.766;2023-08-08T10:41:21;19.90;99.90
21261;DHT22;10788;47.930;9.766;2023-08-08T10:43:52;20.00;99.90
21261;DHT22;10788;47.930;9.766;2023-08-08T10:46:27;20.30;99.90
21261;DHT22;10788;47.930;9.766;2023-08-08T10:48:54;20.50;99.90
21261;DHT22;10788;47.930;9.766;2023-08-08T10:51:20;20.70;99.90
21261;DHT22;10788;47.930;9.766;2023-08-08T10:53:50;20.80;99.90
21261;DHT22;10788;47.930;9.766;2023-08-08T10:56:18;20.70;99.90
21261;DHT22;10788;47.930;9.766;2023-08-08T10:58:48;20.80;99.90
21261;DHT22;10788;47.930;9.766;2023-08-08T11:01:13;20.70;99.90
21261;DHT22;10788;47.930;9.766;2023-08-08T11:03:41;20.90;99.90
21261;DHT22;10788;47.930;9.766;2023-08-08T11:06:07;20.90;99.90
21261;DHT22;10788;47.930;9.766;2023-08-08T11:08:34;21.20;99.90
21261;DHT22;10788;47.930;9.766;2023-08-08T11:11:02;20.80;99.90
21261;DHT22;10788;47.930;9.766;2023-08-08T11:13:29;21.10;99.90
21261;DHT22;10788;47.930;9.766;2023-08-08T11:15:55;21.10;99.90
21261;DHT22;10788;47.930;9.766;2023-08-08T11:18:20;21.20;99.90
21261;DHT22;10788;47.930;9.766;2023-08-08T11:20:47;21.30;99.90
21261;DHT22;10788;47.930;9.766;2023-08-08T11:23:13;21.40;99.90
21261;DHT22;10788;47.930;9.766;2023-08-08T11:25:43;21.50;99.90
21261;DHT22;10788;47.930;9.766;2023-08-08T11:28:09;21.50;99.90
21261;DHT22;10788;47.930;9.766;2023-08-08T11:30:38;21.50;99.90
21261;DHT22;10788;47.930;9.766;2023-08-08T11:33:04;21.40;99.90
21261;DHT22;10788;47.930;9.766;2023-08-08T11:35:30;21.40;99.90
21261;DHT22;10788;47.930;9.766;2023-08-08T11:37:57;21.40;99.90
21261;DHT22;10788;47.930;9.766;2023-08-08T11:40:26;21.40;99.90
21261;DHT22;10788;47.930;9.766;2023-08-08T11:42:52;21.40;99.90
21261;DHT22;10788;47.930;9.766;2023-08-08T11:45:19;21.50;99.90
21261;DHT22;10788;47.930;9.766;2023-08-08T11:47:49;21.50;99.90
21261;DHT22;10788;47.930;9.766;2023-08-08T11:50:15;21.60;99.90
21261;DHT22;10788;47.930;9.766;2023-08-08T11:52:43;21.70;99.90
21261;DHT22;10788;47.930;9.766;2023-08-08T11:55:09;21.50;99.90
21261;DHT22;10788;47.930;9.766;2023-08-08T11:57:39;21.50;99.90
21261;DHT22;10788;47.930;9.766;2023-08-08T12:00:09;21.50;99.90
21261;DHT22;10788;47.930;9.766;2023-08-08T12:02:38;21.50;99.90
21261;DHT22;10788;47.930;9.766;2023-08-08T12:05:09;21.50;99.90
21261;DHT22;10788;47.930;9.766;2023-08-08T12:07:37;21.40;99.90
21261;DHT22;10788;47.930;9.766;2023-08-08T12:10:03;21.40;99.90
21261;DHT22;10788;47.930;9.766;2023-08-08T12:12:31;21.40;99.90
21261;DHT22;10788;47.930;9.766;2023-08-08T12:15:06;21.50;99.90
21261;DHT22;10788;47.930;9.766;2023-08-08T12:17:32;21.40;99.90
21261;DHT22;10788;47.930;9.766;2023-08-08T12:20:03;21.40;99.90
21261;DHT22;10788;47.930;9.766;2023-08-08T12:22:32;21.40;99.90
21261;DHT22;10788;47.930;9.766;2023-08-08T12:24:58;21.30;99.90
21261;DHT22;10788;47.930;9.766;2023-08-08T12:27:23;21.20;99.90
21261;DHT22;10788;47.930;9.766;2023-08-08T12:29:49;21.30;99.90
21261;DHT22;10788;47.930;9.766;2023-08-08T12:32:15;21.40;99.90
21261;DHT22;10788;47.930;9.766;2023-08-08T12:34:40;21.50;99.90
21261;DHT22;10788;47.930;9.766;2023-08-08T12:37:06;21.40;99.90
21261;DHT22;10788;47.930;9.766;2023-08-08T12:39:31;21.60;99.90
21261;DHT22;10788;47.930;9.766;2023-08-08T12:41:57;21.80;99.90
21261;DHT22;10788;47.930;9.766;2023-08-08T12:44:23;21.80;99.90
21261;DHT22;10788;47.930;9.766;2023-08-08T12:46:48;21.80;99.90
21261;DHT22;10788;47.930;9.766;2023-08-08T12:49:14;21.70;99.90
21261;DHT22;10788;47.930;9.766;2023-08-08T12:51:40;21.70;99.90
21261;DHT22;10788;47.930;9.766;2023-08-08T12:54:05;21.60;99.90
21261;DHT22;10788;47.930;9.766;2023-08-08T12:56:31;21.50;99.90
21261;DHT22;10788;47.930;9.766;2023-08-08T12:58:57;21.30;99.90
21261;DHT22;10788;47.930;9.766;2023-08-08T13:01:22;21.40;99.90
21261;DHT22;10788;47.930;9.766;2023-08-08T13:03:50;21.50;99.90
21261;DHT22;10788;47.930;9.766;2023-08-08T13:06:15;21.40;99.90
21261;DHT22;10788;47.930;9.766;2023-08-08T13:08:41;21.50;99.90
21261;DHT22;10788;47.930;9.766;2023-08-08T13:11:10;21.60;99.90
21261;DHT22;10788;47.930;9.766;2023-08-08T13:13:35;21.60;99.90
21261;DHT22;10788;47.930;9.766;2023-08-08T13:16:01;21.60;99.90
21261;DHT22;10788;47.930;9.766;2023-08-08T13:18:27;21.50;99.90
21261;DHT22;10788;47.930;9.766;2023-08-08T13:20:52;21.40;99.90
21261;DHT22;10788;47.930;9.766;2023-08-08T13:23:18;21.40;99.90
21261;DHT22;10788;47.930;9.766;2023-08-08T13:25:44;21.40;99.90
21261;DHT22;10788;47.930;9.766;2023-08-08T13:28:09;21.40;99.90
21261;DHT22;10788;47.930;9.766;2023-08-08T13:30:35;21.40;99.90
21261;DHT22;10788;47.930;9.766;2023-08-08T13:33:01;21.40;99.90
21261;DHT22;10788;47.930;9.766;2023-08-08T13:35:26;21.40;99.90
21261;DHT22;10788;47.930;9.766;2023-08-08T13:37:52;21.50;99.90
21261;DHT22;10788;47.930;9.766;2023-08-08T13:40:20;21.60;99.90
21261;DHT22;10788;47.930;9.766;2023-08-08T13:42:46;21.60;99.90
21261;DHT22;10788;47.930;9.766;2023-08-08T13:45:14;21.50;99.90
21261;DHT22;10788;47.930;9.766;2023-08-08T13:47:39;21.60;99.90
21261;DHT22;10788;47.930;9.766;2023-08-08T13:50:06;21.60;99.90
21261;DHT22;10788;47.930;9.766;2023-08-08T13:52:31;21.60;99.90
21261;DHT22;10788;47.930;9.766;2023-08-08T13:54:58;21.60;99.90
21261;DHT22;10788;47.930;9.766;2023-08-08T13:57:24;21.50;99.90
21261;DHT22;10788;47.930;9.766;2023-08-08T13:59:49;21.40;99.90
21261;DHT22;10788;47.930;9.766;2023-08-08T14:02:15;21.40;99.90
21261;DHT22;10788;47.930;9.766;2023-08-08T14:04:44;21.50;99.90
21261;DHT22;10788;47.930;9.766;2023-08-08T14:07:09;21.50;99.90
21261;DHT22;10788;47.930;9.766;2023-08-08T14:09:35;21.60;99.90
21261;DHT22;10788;47.930;9.766;2023-08-08T14:12:01;21.50;99.90
21261;DHT22;10788;47.930;9.766;2023-08-08T14:14:27;21.50;99.90
21261;DHT22;10788;47.930;9.766;2023-08-08T14:16:52;21.50;99.90
21261;DHT22;10788;47.930;9.766;2023-08-08T14:19:18;21.40;99.90
21261;DHT22;10788;47.930;9.766;2023-08-08T14:21:44;21.30;99.90
21261;DHT22;10788;47.930;9.766;2023-08-08T14:24:10;21.30;99.90
21261;DHT22;10788;47.930;9.766;2023-08-08T14:26:36;21.40;99.90
21261;DHT22;10788;47.930;9.766;2023-08-08T14:29:02;21.50;99.90
21261;DHT22;10788;47.930;9.766;2023-08-08T14:31:27;21.60;99.90
21261;DHT22;10788;47.930;9.766;2023-08-08T14:34:27;21.60;99.90
21261;DHT22;10788;47.930;9.766;2023-08-08T14:36:53;21.50;99.90
21261;DHT22;10788;47.930;9.766;2023-08-08T14:39:18;21.50;99.90
21261;DHT22;10788;47.930;9.766;2023-08-08T14:41:44;21.40;99.90
21261;DHT22;10788;47.930;9.766;2023-08-08T14:44:10;21.40;99.90
21261;DHT22;10788;47.930;9.766;2023-08-08T14:46:35;21.40;99.90
21261;DHT22;10788;47.930;9.766;2023-08-08T14:49:01;21.30;99.90
21261;DHT22;10788;47.930;9.766;2023-08-08T14:51:27;21.50;99.90
21261;DHT22;10788;47.930;9.766;2023-08-08T14:53:53;21.50;99.90
21261;DHT22;10788;47.930;9.766;2023-08-08T14:56:18;21.50;99.90
21261;DHT22;10788;47.930;9.766;2023-08-08T14:58:44;21.50;99.90
21261;DHT22;10788;47.930;9.766;2023-08-08T15:01:10;21.50;99.90
21261;DHT22;10788;47.930;9.766;2023-08-08T15:03:35;21.50;99.90
21261;DHT22;10788;47.930;9.766;2023-08-08T15:06:01;21.50;99.90
21261;DHT22;10788;47.930;9.766;2023-08-08T15:08:26;21.40;99.90
21261;DHT22;10788;47.930;9.766;2023-08-08T15:10:52;21.10;99.90
21261;DHT22;10788;47.930;9.766;2023-08-08T15:13:18;21.20;99.90
21261;DHT22;10788;47.930;9.766;2023-08-08T15:15:43;21.10;99.90
21261;DHT22;10788;47.930;9.766;2023-08-08T15:18:09;21.10;99.90
21261;DHT22;10788;47.930;9.766;2023-08-08T15:20:34;21.10;99.90
21261;DHT22;10788;47.930;9.766;2023-08-08T15:23:01;21.10;99.90
21261;DHT22;10788;47.930;9.766;2023-08-08T15:25:27;21.10;99.90